sensor_id;sensor_type;location;lat;lon;timestamp;P1;durP1;ratioP1;P2;durP2;ratioP2
19207;SDS011;9737;59.466;18.036;2022-07-29T00:02:13;1.52;;;1.42;;
19207;SDS011;9737;59.466;18.036;2022-07-29T00:04:42;3.78;;;1.50;;
19207;SDS011;9737;59.466;18.036;2022-07-29T00:07:10;1.63;;;1.40;;
19207;SDS011;9737;59.466;18.036;2022-07-29T00:09:39;5.53;;;1.50;;
19207;SDS011;9737;59.466;18.036;2022-07-29T00:12:17;1.95;;;1.67;;
19207;SDS011;9737;59.466;18.036;2022-07-29T00:14:52;2.78;;;1.40;;
19207;SDS011;9737;59.466;18.036;2022-07-29T00:17:21;1.50;;;1.40;;
19207;SDS011;9737;59.466;18.036;2022-07-29T00:19:50;1.95;;;1.30;;
19207;SDS011;9737;59.466;18.036;2022-07-29T00:22:18;3.72;;;1.50;;
19207;SDS011;9737;59.466;18.036;2022-07-29T00:24:46;1.58;;;1.20;;
19207;SDS011;9737;59.466;18.036;2022-07-29T00:27:16;2.80;;;1.40;;
19207;SDS011;9737;59.466;18.036;2022-07-29T00:29:46;1.42;;;1.33;;
19207;SDS011;9737;59.466;18.036;2022-07-29T00:32:14;1.40;;;1.30;;
19207;SDS011;9737;59.466;18.036;2022-07-29T00:34:43;1.58;;;1.48;;
19207;SDS011;9737;59.466;18.036;2022-07-29T00:37:30;1.50;;;1.40;;
19207;SDS011;9737;59.466;18.036;2022-07-29T00:39:59;1.50;;;1.40;;
19207;SDS011;9737;59.466;18.036;2022-07-29T00:42:27;3.35;;;1.60;;
19207;SDS011;9737;59.466;18.036;2022-07-29T00:44:55;1.95;;;1.55;;
19207;SDS011;9737;59.466;18.036;2022-07-29T00:47:23;2.28;;;1.77;;
19207;SDS011;9737;59.466;18.036;2022-07-29T00:49:51;1.52;;;1.30;;
19207;SDS011;9737;59.466;18.036;2022-07-29T00:52:19;1.40;;;1.30;;
19207;SDS011;9737;59.466;18.036;2022-07-29T00:54:50;1.63;;;1.52;;
19207;SDS011;9737;59.466;18.036;2022-07-29T00:57:18;1.50;;;1.40;;
19207;SDS011;9737;59.466;18.036;2022-07-29T00:59:46;1.70;;;1.60;;
19207;SDS011;9737;59.466;18.036;2022-07-29T01:02:14;3.30;;;1.67;;
19207;SDS011;9737;59.466;18.036;2022-07-29T01:04:42;1.70;;;1.60;;
19207;SDS011;9737;59.466;18.036;2022-07-29T01:07:10;2.45;;;1.50;;
19207;SDS011;9737;59.466;18.036;2022-07-29T01:09:38;2.72;;;1.40;;
19207;SDS011;9737;59.466;18.036;2022-07-29T01:12:15;2.42;;;1.30;;
19207;SDS011;9737;59.466;18.036;2022-07-29T01:14:45;1.50;;;1.40;;
19207;SDS011;9737;59.466;18.036;2022-07-29T01:17:17;3.17;;;1.70;;
19207;SDS011;9737;59.466;18.036;2022-07-29T01:19:51;2.13;;;1.70;;
19207;SDS011;9737;59.466;18.036;2022-07-29T01:22:31;1.63;;;1.50;;
19207;SDS011;9737;59.466;18.036;2022-07-29T01:25:23;1.67;;;1.55;;
19207;SDS011;9737;59.466;18.036;2022-07-29T01:28:17;2.33;;;1.63;;
19207;SDS011;9737;59.466;18.036;2022-07-29T01:31:06;1.50;;;1.40;;
19207;SDS011;9737;59.466;18.036;2022-07-29T01:33:48;3.47;;;1.52;;
19207;SDS011;9737;59.466;18.036;2022-07-29T01:36:23;1.58;;;1.48;;
19207;SDS011;9737;59.466;18.036;2022-07-29T01:38:58;2.50;;;1.40;;
19207;SDS011;9737;59.466;18.036;2022-07-29T01:41:32;1.63;;;1.52;;
19207;SDS011;9737;59.466;18.036;2022-07-29T01:44:07;3.58;;;1.40;;
19207;SDS011;9737;59.466;18.036;2022-07-29T01:46:41;2.90;;;1.50;;
19207;SDS011;9737;59.466;18.036;2022-07-29T01:49:16;3.72;;;1.50;;
19207;SDS011;9737;59.466;18.036;2022-07-29T01:51:50;2.03;;;1.60;;
19207;SDS011;9737;59.466;18.036;2022-07-29T01:54:25;1.60;;;1.40;;
19207;SDS011;9737;59.466;18.036;2022-07-29T01:56:58;2.33;;;1.60;;
19207;SDS011;9737;59.466;18.036;2022-07-29T01:59:30;1.50;;;1.40;;
19207;SDS011;9737;59.466;18.036;2022-07-29T02:01:59;1.60;;;1.50;;
19207;SDS011;9737;59.466;18.036;2022-07-29T02:04:29;1.60;;;1.50;;
19207;SDS011;9737;59.466;18.036;2022-07-29T02:07:02;3.92;;;1.52;;
19207;SDS011;9737;59.466;18.036;2022-07-29T02:09:33;5.60;;;1.60;;
19207;SDS011;9737;59.466;18.036;2022-07-29T02:12:03;2.45;;;1.45;;
19207;SDS011;9737;59.466;18.036;2022-07-29T02:14:36;1.50;;;1.40;;
19207;SDS011;9737;59.466;18.036;2022-07-29T02:17:05;1.83;;;1.60;;
19207;SDS011;9737;59.466;18.036;2022-07-29T02:19:33;1.70;;;1.60;;
19207;SDS011;9737;59.466;18.036;2022-07-29T02:22:04;2.90;;;1.50;;
19207;SDS011;9737;59.466;18.036;2022-07-29T02:24:34;1.60;;;1.50;;
19207;SDS011;9737;59.466;18.036;2022-07-29T02:27:04;1.83;;;1.60;;
19207;SDS011;9737;59.466;18.036;2022-07-29T02:29:36;1.80;;;1.50;;
19207;SDS011;9737;59.466;18.036;2022-07-29T02:32:07;2.05;;;1.60;;
19207;SDS011;9737;59.466;18.036;2022-07-29T02:34:39;1.42;;;1.33;;
19207;SDS011;9737;59.466;18.036;2022-07-29T02:37:08;2.17;;;1.40;;
19207;SDS011;9737;59.466;18.036;2022-07-29T02:39:37;2.60;;;1.63;;
19207;SDS011;9737;59.466;18.036;2022-07-29T02:42:09;1.75;;;1.52;;
19207;SDS011;9737;59.466;18.036;2022-07-29T02:44:41;2.58;;;1.50;;
19207;SDS011;9737;59.466;18.036;2022-07-29T02:47:10;2.70;;;1.67;;
19207;SDS011;9737;59.466;18.036;2022-07-29T02:49:46;1.83;;;1.55;;
19207;SDS011;9737;59.466;18.036;2022-07-29T02:52:21;1.60;;;1.50;;
19207;SDS011;9737;59.466;18.036;2022-07-29T02:54:55;1.48;;;1.38;;
19207;SDS011;9737;59.466;18.036;2022-07-29T02:57:32;1.85;;;1.65;;
19207;SDS011;9737;59.466;18.036;2022-07-29T03:00:21;1.70;;;1.60;;
19207;SDS011;9737;59.466;18.036;2022-07-29T03:02:54;2.53;;;1.60;;
19207;SDS011;9737;59.466;18.036;2022-07-29T03:05:26;3.78;;;2.00;;
19207;SDS011;9737;59.466;18.036;2022-07-29T03:08:00;1.70;;;1.60;;
19207;SDS011;9737;59.466;18.036;2022-07-29T03:10:30;1.50;;;1.40;;
19207;SDS011;9737;59.466;18.036;2022-07-29T03:12:58;1.63;;;1.52;;
19207;SDS011;9737;59.466;18.036;2022-07-29T03:15:30;2.22;;;1.67;;
19207;SDS011;9737;59.466;18.036;2022-07-29T03:17:59;2.45;;;1.50;;
19207;SDS011;9737;59.466;18.036;2022-07-29T03:20:27;1.63;;;1.50;;
19207;SDS011;9737;59.466;18.036;2022-07-29T03:22:55;1.90;;;1.50;;
19207;SDS011;9737;59.466;18.036;2022-07-29T03:25:24;1.70;;;1.60;;
19207;SDS011;9737;59.466;18.036;2022-07-29T03:27:53;3.05;;;1.95;;
19207;SDS011;9737;59.466;18.036;2022-07-29T03:30:22;1.90;;;1.70;;
19207;SDS011;9737;59.466;18.036;2022-07-29T03:32:52;1.60;;;1.40;;
19207;SDS011;9737;59.466;18.036;2022-07-29T03:35:22;3.40;;;1.92;;
19207;SDS011;9737;59.466;18.036;2022-07-29T03:37:49;2.40;;;1.48;;
19207;SDS011;9737;59.466;18.036;2022-07-29T03:40:19;1.77;;;1.52;;
19207;SDS011;9737;59.466;18.036;2022-07-29T03:42:52;2.15;;;1.70;;
19207;SDS011;9737;59.466;18.036;2022-07-29T03:45:23;2.05;;;1.52;;
19207;SDS011;9737;59.466;18.036;2022-07-29T03:47:57;1.70;;;1.60;;
19207;SDS011;9737;59.466;18.036;2022-07-29T03:50:29;1.75;;;1.55;;
19207;SDS011;9737;59.466;18.036;2022-07-29T03:52:58;5.97;;;2.10;;
19207;SDS011;9737;59.466;18.036;2022-07-29T03:55:26;1.98;;;1.70;;
19207;SDS011;9737;59.466;18.036;2022-07-29T03:57:59;2.45;;;1.50;;
19207;SDS011;9737;59.466;18.036;2022-07-29T04:00:28;1.70;;;1.60;;
19207;SDS011;9737;59.466;18.036;2022-07-29T04:02:59;1.58;;;1.48;;
19207;SDS011;9737;59.466;18.036;2022-07-29T04:05:28;2.17;;;1.55;;
19207;SDS011;9737;59.466;18.036;2022-07-29T04:07:56;1.65;;;1.55;;
19207;SDS011;9737;59.466;18.036;2022-07-29T04:10:24;2.33;;;1.90;;
19207;SDS011;9737;59.466;18.036;2022-07-29T04:12:57;2.13;;;1.70;;
19207;SDS011;9737;59.466;18.036;2022-07-29T04:15:26;1.60;;;1.50;;
19207;SDS011;9737;59.466;18.036;2022-07-29T04:17:57;1.58;;;1.48;;
19207;SDS011;9737;59.466;18.036;2022-07-29T04:20:27;1.75;;;1.65;;
19207;SDS011;9737;59.466;18.036;2022-07-29T04:22:55;3.00;;;1.70;;
19207;SDS011;9737;59.466;18.036;2022-07-29T04:25:23;2.65;;;1.80;;
19207;SDS011;9737;59.466;18.036;2022-07-29T04:27:51;1.75;;;1.60;;
19207;SDS011;9737;59.466;18.036;2022-07-29T04:30:28;1.60;;;1.50;;
19207;SDS011;9737;59.466;18.036;2022-07-29T04:32:57;3.33;;;1.45;;
19207;SDS011;9737;59.466;18.036;2022-07-29T04:35:26;2.13;;;1.52;;
19207;SDS011;9737;59.466;18.036;2022-07-29T04:37:54;1.75;;;1.65;;
19207;SDS011;9737;59.466;18.036;2022-07-29T04:40:22;1.80;;;1.60;;
19207;SDS011;9737;59.466;18.036;2022-07-29T04:42:50;1.58;;;1.48;;
19207;SDS011;9737;59.466;18.036;2022-07-29T04:45:19;2.15;;;1.50;;
19207;SDS011;9737;59.466;18.036;2022-07-29T04:47:48;3.40;;;1.30;;
19207;SDS011;9737;59.466;18.036;2022-07-29T04:50:16;1.85;;;1.60;;
19207;SDS011;9737;59.466;18.036;2022-07-29T04:52:45;1.45;;;1.35;;
19207;SDS011;9737;59.466;18.036;2022-07-29T04:55:13;2.63;;;1.40;;
19207;SDS011;9737;59.466;18.036;2022-07-29T04:57:41;1.70;;;1.27;;
19207;SDS011;9737;59.466;18.036;2022-07-29T05:00:09;3.38;;;1.38;;
19207;SDS011;9737;59.466;18.036;2022-07-29T05:02:38;1.88;;;1.40;;
19207;SDS011;9737;59.466;18.036;2022-07-29T05:05:06;7.72;;;1.30;;
19207;SDS011;9737;59.466;18.036;2022-07-29T05:07:34;8.07;;;1.27;;
19207;SDS011;9737;59.466;18.036;2022-07-29T05:10:04;2.20;;;1.30;;
19207;SDS011;9737;59.466;18.036;2022-07-29T05:12:33;1.98;;;1.30;;
19207;SDS011;9737;59.466;18.036;2022-07-29T05:15:02;1.95;;;1.23;;
19207;SDS011;9737;59.466;18.036;2022-07-29T05:17:30;1.88;;;1.20;;
19207;SDS011;9737;59.466;18.036;2022-07-29T05:19:59;2.05;;;1.30;;
19207;SDS011;9737;59.466;18.036;2022-07-29T05:22:26;3.63;;;1.30;;
19207;SDS011;9737;59.466;18.036;2022-07-29T05:24:54;2.53;;;1.30;;
19207;SDS011;9737;59.466;18.036;2022-07-29T05:27:24;1.58;;;1.20;;
19207;SDS011;9737;59.466;18.036;2022-07-29T05:29:52;1.20;;;1.10;;
19207;SDS011;9737;59.466;18.036;2022-07-29T05:32:20;2.83;;;1.40;;
19207;SDS011;9737;59.466;18.036;2022-07-29T05:34:48;2.33;;;1.35;;
19207;SDS011;9737;59.466;18.036;2022-07-29T05:37:17;1.80;;;1.00;;
19207;SDS011;9737;59.466;18.036;2022-07-29T05:39:46;1.48;;;1.00;;
19207;SDS011;9737;59.466;18.036;2022-07-29T05:42:23;2.15;;;1.20;;
19207;SDS011;9737;59.466;18.036;2022-07-29T05:44:52;3.85;;;1.10;;
19207;SDS011;9737;59.466;18.036;2022-07-29T05:47:21;1.38;;;0.85;;
19207;SDS011;9737;59.466;18.036;2022-07-29T05:49:49;1.20;;;1.05;;
19207;SDS011;9737;59.466;18.036;2022-07-29T05:52:17;2.75;;;1.17;;
19207;SDS011;9737;59.466;18.036;2022-07-29T05:54:46;2.33;;;1.00;;
19207;SDS011;9737;59.466;18.036;2022-07-29T05:57:17;1.67;;;1.10;;
19207;SDS011;9737;59.466;18.036;2022-07-29T05:59:47;1.58;;;1.00;;
19207;SDS011;9737;59.466;18.036;2022-07-29T06:02:16;2.15;;;1.00;;
19207;SDS011;9737;59.466;18.036;2022-07-29T06:04:44;1.65;;;0.93;;
19207;SDS011;9737;59.466;18.036;2022-07-29T06:07:12;3.33;;;0.98;;
19207;SDS011;9737;59.466;18.036;2022-07-29T06:09:40;0.80;;;0.80;;
19207;SDS011;9737;59.466;18.036;2022-07-29T06:12:08;4.28;;;1.00;;
19207;SDS011;9737;59.466;18.036;2022-07-29T06:14:37;1.98;;;0.90;;
19207;SDS011;9737;59.466;18.036;2022-07-29T06:17:06;1.20;;;0.90;;
19207;SDS011;9737;59.466;18.036;2022-07-29T06:19:34;1.23;;;0.80;;
19207;SDS011;9737;59.466;18.036;2022-07-29T06:22:03;2.85;;;0.90;;
19207;SDS011;9737;59.466;18.036;2022-07-29T06:24:31;1.55;;;1.00;;
19207;SDS011;9737;59.466;18.036;2022-07-29T06:26:59;4.43;;;1.10;;
19207;SDS011;9737;59.466;18.036;2022-07-29T06:29:27;2.38;;;0.82;;
19207;SDS011;9737;59.466;18.036;2022-07-29T06:31:55;0.80;;;0.80;;
19207;SDS011;9737;59.466;18.036;2022-07-29T06:34:24;0.70;;;0.70;;
19207;SDS011;9737;59.466;18.036;2022-07-29T06:36:52;3.25;;;0.90;;
19207;SDS011;9737;59.466;18.036;2022-07-29T06:39:21;1.30;;;0.80;;
19207;SDS011;9737;59.466;18.036;2022-07-29T06:41:49;1.15;;;0.90;;
19207;SDS011;9737;59.466;18.036;2022-07-29T06:44:18;0.70;;;0.70;;
19207;SDS011;9737;59.466;18.036;2022-07-29T06:46:46;0.80;;;0.80;;
19207;SDS011;9737;59.466;18.036;2022-07-29T06:49:15;0.80;;;0.80;;
19207;SDS011;9737;59.466;18.036;2022-07-29T06:51:45;1.20;;;0.65;;
19207;SDS011;9737;59.466;18.036;2022-07-29T06:54:13;1.70;;;0.70;;
19207;SDS011;9737;59.466;18.036;2022-07-29T06:56:41;0.60;;;0.60;;
19207;SDS011;9737;59.466;18.036;2022-07-29T06:59:09;0.70;;;0.70;;
19207;SDS011;9737;59.466;18.036;2022-07-29T07:01:39;1.50;;;0.60;;
19207;SDS011;9737;59.466;18.036;2022-07-29T07:04:09;6.00;;;0.70;;
19207;SDS011;9737;59.466;18.036;2022-07-29T07:06:38;0.70;;;0.70;;
19207;SDS011;9737;59.466;18.036;2022-07-29T07:09:07;1.10;;;0.70;;
19207;SDS011;9737;59.466;18.036;2022-07-29T07:11:36;2.55;;;0.88;;
19207;SDS011;9737;59.466;18.036;2022-07-29T07:14:04;2.25;;;0.73;;
19207;SDS011;9737;59.466;18.036;2022-07-29T07:16:32;0.80;;;0.80;;
19207;SDS011;9737;59.466;18.036;2022-07-29T07:19:01;2.25;;;0.70;;
19207;SDS011;9737;59.466;18.036;2022-07-29T07:21:29;2.80;;;0.70;;
19207;SDS011;9737;59.466;18.036;2022-07-29T07:23:57;2.17;;;0.70;;
19207;SDS011;9737;59.466;18.036;2022-07-29T07:26:27;0.65;;;0.65;;
19207;SDS011;9737;59.466;18.036;2022-07-29T07:28:55;1.38;;;0.90;;
19207;SDS011;9737;59.466;18.036;2022-07-29T07:31:24;0.75;;;0.70;;
19207;SDS011;9737;59.466;18.036;2022-07-29T07:33:52;0.70;;;0.70;;
19207;SDS011;9737;59.466;18.036;2022-07-29T07:36:20;0.82;;;0.60;;
19207;SDS011;9737;59.466;18.036;2022-07-29T07:38:49;0.93;;;0.70;;
19207;SDS011;9737;59.466;18.036;2022-07-29T07:41:17;2.78;;;0.80;;
19207;SDS011;9737;59.466;18.036;2022-07-29T07:43:46;0.75;;;0.75;;
19207;SDS011;9737;59.466;18.036;2022-07-29T07:46:14;0.70;;;0.70;;
19207;SDS011;9737;59.466;18.036;2022-07-29T07:48:43;1.00;;;0.80;;
19207;SDS011;9737;59.466;18.036;2022-07-29T07:51:11;0.70;;;0.70;;
19207;SDS011;9737;59.466;18.036;2022-07-29T07:53:39;1.95;;;0.70;;
19207;SDS011;9737;59.466;18.036;2022-07-29T07:56:07;2.83;;;0.75;;
19207;SDS011;9737;59.466;18.036;2022-07-29T07:58:37;2.72;;;1.02;;
19207;SDS011;9737;59.466;18.036;2022-07-29T08:01:08;1.02;;;0.70;;
19207;SDS011;9737;59.466;18.036;2022-07-29T08:03:36;0.80;;;0.80;;
19207;SDS011;9737;59.466;18.036;2022-07-29T08:06:05;2.75;;;0.70;;
19207;SDS011;9737;59.466;18.036;2022-07-29T08:08:33;0.70;;;0.70;;
19207;SDS011;9737;59.466;18.036;2022-07-29T08:11:01;1.25;;;0.70;;
19207;SDS011;9737;59.466;18.036;2022-07-29T08:13:35;1.05;;;0.70;;
19207;SDS011;9737;59.466;18.036;2022-07-29T08:16:03;1.02;;;0.70;;
19207;SDS011;9737;59.466;18.036;2022-07-29T08:18:41;1.13;;;0.70;;
19207;SDS011;9737;59.466;18.036;2022-07-29T08:21:10;0.77;;;0.77;;
19207;SDS011;9737;59.466;18.036;2022-07-29T08:23:41;0.88;;;0.77;;
19207;SDS011;9737;59.466;18.036;2022-07-29T08:26:19;0.60;;;0.60;;
19207;SDS011;9737;59.466;18.036;2022-07-29T08:28:48;0.85;;;0.60;;
19207;SDS011;9737;59.466;18.036;2022-07-29T08:31:17;0.70;;;0.70;;
19207;SDS011;9737;59.466;18.036;2022-07-29T08:33:46;0.73;;;0.73;;
19207;SDS011;9737;59.466;18.036;2022-07-29T08:36:14;4.85;;;0.90;;
19207;SDS011;9737;59.466;18.036;2022-07-29T08:38:42;1.00;;;0.70;;
19207;SDS011;9737;59.466;18.036;2022-07-29T08:41:10;0.70;;;0.70;;
19207;SDS011;9737;59.466;18.036;2022-07-29T08:43:39;0.90;;;0.70;;
19207;SDS011;9737;59.466;18.036;2022-07-29T08:46:08;1.13;;;0.75;;
19207;SDS011;9737;59.466;18.036;2022-07-29T08:48:36;1.27;;;0.70;;
19207;SDS011;9737;59.466;18.036;2022-07-29T08:51:07;0.70;;;0.70;;
19207;SDS011;9737;59.466;18.036;2022-07-29T08:53:35;0.63;;;0.63;;
19207;SDS011;9737;59.466;18.036;2022-07-29T08:56:04;1.02;;;0.60;;
19207;SDS011;9737;59.466;18.036;2022-07-29T08:58:33;0.60;;;0.60;;
19207;SDS011;9737;59.466;18.036;2022-07-29T09:01:03;0.70;;;0.70;;
19207;SDS011;9737;59.466;18.036;2022-07-29T09:03:33;0.75;;;0.60;;
19207;SDS011;9737;59.466;18.036;2022-07-29T09:06:03;0.60;;;0.60;;
19207;SDS011;9737;59.466;18.036;2022-07-29T09:08:33;0.60;;;0.60;;
19207;SDS011;9737;59.466;18.036;2022-07-29T09:11:01;0.70;;;0.70;;
19207;SDS011;9737;59.466;18.036;2022-07-29T09:13:31;1.85;;;0.60;;
19207;SDS011;9737;59.466;18.036;2022-07-29T09:15:58;2.05;;;0.70;;
19207;SDS011;9737;59.466;18.036;2022-07-29T09:18:35;2.67;;;0.80;;
19207;SDS011;9737;59.466;18.036;2022-07-29T09:21:04;1.08;;;0.70;;
19207;SDS011;9737;59.466;18.036;2022-07-29T09:26:44;0.50;;;0.50;;
19207;SDS011;9737;59.466;18.036;2022-07-29T09:29:14;2.20;;;0.70;;
19207;SDS011;9737;59.466;18.036;2022-07-29T09:31:44;0.60;;;0.60;;
19207;SDS011;9737;59.466;18.036;2022-07-29T09:34:15;1.75;;;0.60;;
19207;SDS011;9737;59.466;18.036;2022-07-29T09:36:46;1.08;;;0.70;;
19207;SDS011;9737;59.466;18.036;2022-07-29T09:39:26;1.98;;;0.70;;
19207;SDS011;9737;59.466;18.036;2022-07-29T09:41:57;1.10;;;0.60;;
19207;SDS011;9737;59.466;18.036;2022-07-29T09:44:29;0.75;;;0.75;;
19207;SDS011;9737;59.466;18.036;2022-07-29T09:47:08;0.77;;;0.77;;
19207;SDS011;9737;59.466;18.036;2022-07-29T09:49:49;1.38;;;0.80;;
19207;SDS011;9737;59.466;18.036;2022-07-29T09:52:19;1.33;;;0.75;;
19207;SDS011;9737;59.466;18.036;2022-07-29T09:54:49;0.60;;;0.60;;
19207;SDS011;9737;59.466;18.036;2022-07-29T09:57:25;0.60;;;0.60;;
19207;SDS011;9737;59.466;18.036;2022-07-29T09:59:57;1.33;;;0.50;;
19207;SDS011;9737;59.466;18.036;2022-07-29T10:02:30;0.50;;;0.50;;
19207;SDS011;9737;59.466;18.036;2022-07-29T10:05:02;0.57;;;0.50;;
19207;SDS011;9737;59.466;18.036;2022-07-29T10:07:44;3.70;;;0.70;;
19207;SDS011;9737;59.466;18.036;2022-07-29T10:10:21;2.72;;;0.80;;
19207;SDS011;9737;59.466;18.036;2022-07-29T10:12:54;2.05;;;0.60;;
19207;SDS011;9737;59.466;18.036;2022-07-29T10:15:30;1.65;;;0.50;;
19207;SDS011;9737;59.466;18.036;2022-07-29T10:17:59;0.60;;;0.60;;
19207;SDS011;9737;59.466;18.036;2022-07-29T10:20:27;0.73;;;0.57;;
19207;SDS011;9737;59.466;18.036;2022-07-29T10:22:55;0.75;;;0.60;;
19207;SDS011;9737;59.466;18.036;2022-07-29T10:25:25;1.48;;;0.50;;
19207;SDS011;9737;59.466;18.036;2022-07-29T10:27:54;1.75;;;0.60;;
19207;SDS011;9737;59.466;18.036;2022-07-29T10:30:23;0.90;;;0.50;;
19207;SDS011;9737;59.466;18.036;2022-07-29T10:33:14;0.50;;;0.50;;
19207;SDS011;9737;59.466;18.036;2022-07-29T10:35:57;4.57;;;0.50;;
19207;SDS011;9737;59.466;18.036;2022-07-29T10:38:39;0.30;;;0.30;;
19207;SDS011;9737;59.466;18.036;2022-07-29T10:41:19;0.30;;;0.30;;
19207;SDS011;9737;59.466;18.036;2022-07-29T10:44:13;0.35;;;0.35;;
19207;SDS011;9737;59.466;18.036;2022-07-29T10:46:48;1.17;;;0.50;;
19207;SDS011;9737;59.466;18.036;2022-07-29T10:49:18;0.43;;;0.40;;
19207;SDS011;9737;59.466;18.036;2022-07-29T10:51:51;1.00;;;0.60;;
19207;SDS011;9737;59.466;18.036;2022-07-29T10:54:43;0.40;;;0.40;;
19207;SDS011;9737;59.466;18.036;2022-07-29T10:57:25;1.05;;;0.50;;
19207;SDS011;9737;59.466;18.036;2022-07-29T11:00:26;0.82;;;0.50;;
19207;SDS011;9737;59.466;18.036;2022-07-29T11:02:56;0.68;;;0.60;;
19207;SDS011;9737;59.466;18.036;2022-07-29T11:05:24;0.60;;;0.50;;
19207;SDS011;9737;59.466;18.036;2022-07-29T11:08:18;0.80;;;0.50;;
19207;SDS011;9737;59.466;18.036;2022-07-29T11:14:18;0.82;;;0.60;;
19207;SDS011;9737;59.466;18.036;2022-07-29T11:17:06;0.50;;;0.50;;
19207;SDS011;9737;59.466;18.036;2022-07-29T11:19:34;0.50;;;0.50;;
19207;SDS011;9737;59.466;18.036;2022-07-29T11:22:07;0.40;;;0.40;;
19207;SDS011;9737;59.466;18.036;2022-07-29T11:24:37;1.85;;;0.43;;
19207;SDS011;9737;59.466;18.036;2022-07-29T11:27:16;1.17;;;0.50;;
19207;SDS011;9737;59.466;18.036;2022-07-29T11:29:49;0.40;;;0.40;;
19207;SDS011;9737;59.466;18.036;2022-07-29T11:32:22;0.45;;;0.40;;
19207;SDS011;9737;59.466;18.036;2022-07-29T11:35:11;0.30;;;0.30;;
19207;SDS011;9737;59.466;18.036;2022-07-29T11:37:45;0.30;;;0.30;;
19207;SDS011;9737;59.466;18.036;2022-07-29T11:40:23;0.40;;;0.30;;
19207;SDS011;9737;59.466;18.036;2022-07-29T11:42:51;0.35;;;0.30;;
19207;SDS011;9737;59.466;18.036;2022-07-29T11:45:22;0.73;;;0.45;;
19207;SDS011;9737;59.466;18.036;2022-07-29T11:48:16;0.20;;;0.20;;
19207;SDS011;9737;59.466;18.036;2022-07-29T11:50:55;0.20;;;0.20;;
19207;SDS011;9737;59.466;18.036;2022-07-29T11:53:24;0.20;;;0.20;;
19207;SDS011;9737;59.466;18.036;2022-07-29T11:55:58;0.30;;;0.30;;
19207;SDS011;9737;59.466;18.036;2022-07-29T11:58:28;1.42;;;0.38;;
19207;SDS011;9737;59.466;18.036;2022-07-29T12:00:58;0.30;;;0.20;;
19207;SDS011;9737;59.466;18.036;2022-07-29T12:03:30;2.05;;;0.28;;
19207;SDS011;9737;59.466;18.036;2022-07-29T12:06:02;1.52;;;0.32;;
19207;SDS011;9737;59.466;18.036;2022-07-29T12:08:39;1.75;;;0.40;;
19207;SDS011;9737;59.466;18.036;2022-07-29T12:11:16;0.30;;;0.30;;
19207;SDS011;9737;59.466;18.036;2022-07-29T12:13:47;1.45;;;0.50;;
19207;SDS011;9737;59.466;18.036;2022-07-29T12:16:17;1.88;;;0.50;;
19207;SDS011;9737;59.466;18.036;2022-07-29T12:18:55;8.13;;;0.50;;
19207;SDS011;9737;59.466;18.036;2022-07-29T12:21:24;0.75;;;0.60;;
19207;SDS011;9737;59.466;18.036;2022-07-29T12:23:54;0.30;;;0.30;;
19207;SDS011;9737;59.466;18.036;2022-07-29T12:26:32;1.33;;;0.60;;
19207;SDS011;9737;59.466;18.036;2022-07-29T12:29:01;2.08;;;0.52;;
19207;SDS011;9737;59.466;18.036;2022-07-29T12:31:38;3.22;;;0.65;;
19207;SDS011;9737;59.466;18.036;2022-07-29T12:34:09;0.57;;;0.50;;
19207;SDS011;9737;59.466;18.036;2022-07-29T12:36:38;1.95;;;0.75;;
19207;SDS011;9737;59.466;18.036;2022-07-29T12:39:07;0.73;;;0.68;;
19207;SDS011;9737;59.466;18.036;2022-07-29T12:41:35;0.70;;;0.60;;
19207;SDS011;9737;59.466;18.036;2022-07-29T12:44:04;0.63;;;0.63;;
19207;SDS011;9737;59.466;18.036;2022-07-29T12:46:32;0.57;;;0.57;;
19207;SDS011;9737;59.466;18.036;2022-07-29T12:49:02;0.50;;;0.50;;
19207;SDS011;9737;59.466;18.036;2022-07-29T12:51:31;1.08;;;0.50;;
19207;SDS011;9737;59.466;18.036;2022-07-29T12:54:01;0.57;;;0.50;;
19207;SDS011;9737;59.466;18.036;2022-07-29T12:56:31;2.22;;;0.60;;
19207;SDS011;9737;59.466;18.036;2022-07-29T12:59:15;0.52;;;0.52;;
19207;SDS011;9737;59.466;18.036;2022-07-29T13:01:44;0.60;;;0.60;;
19207;SDS011;9737;59.466;18.036;2022-07-29T13:04:25;0.65;;;0.65;;
19207;SDS011;9737;59.466;18.036;2022-07-29T13:07:03;0.60;;;0.60;;
19207;SDS011;9737;59.466;18.036;2022-07-29T13:09:36;0.80;;;0.70;;
19207;SDS011;9737;59.466;18.036;2022-07-29T13:12:05;2.33;;;0.57;;
19207;SDS011;9737;59.466;18.036;2022-07-29T13:14:37;0.82;;;0.52;;
19207;SDS011;9737;59.466;18.036;2022-07-29T13:17:07;0.50;;;0.50;;
19207;SDS011;9737;59.466;18.036;2022-07-29T13:19:39;0.50;;;0.50;;
19207;SDS011;9737;59.466;18.036;2022-07-29T13:22:08;0.88;;;0.68;;
19207;SDS011;9737;59.466;18.036;2022-07-29T13:24:46;0.63;;;0.63;;
19207;SDS011;9737;59.466;18.036;2022-07-29T13:27:15;1.48;;;0.50;;
19207;SDS011;9737;59.466;18.036;2022-07-29T13:29:43;1.55;;;0.55;;
19207;SDS011;9737;59.466;18.036;2022-07-29T13:32:12;0.60;;;0.60;;
19207;SDS011;9737;59.466;18.036;2022-07-29T13:34:42;0.95;;;0.70;;
19207;SDS011;9737;59.466;18.036;2022-07-29T13:37:10;0.60;;;0.60;;
19207;SDS011;9737;59.466;18.036;2022-07-29T13:39:38;0.77;;;0.75;;
19207;SDS011;9737;59.466;18.036;2022-07-29T13:42:06;0.60;;;0.60;;
19207;SDS011;9737;59.466;18.036;2022-07-29T13:44:36;4.55;;;0.70;;
19207;SDS011;9737;59.466;18.036;2022-07-29T13:47:04;0.88;;;0.70;;
19207;SDS011;9737;59.466;18.036;2022-07-29T13:49:33;0.77;;;0.60;;
19207;SDS011;9737;59.466;18.036;2022-07-29T13:52:02;0.70;;;0.70;;
19207;SDS011;9737;59.466;18.036;2022-07-29T13:54:33;3.70;;;0.90;;
19207;SDS011;9737;59.466;18.036;2022-07-29T13:57:08;0.50;;;0.50;;
19207;SDS011;9737;59.466;18.036;2022-07-29T13:59:37;3.08;;;0.60;;
19207;SDS011;9737;59.466;18.036;2022-07-29T14:02:05;1.50;;;0.50;;
19207;SDS011;9737;59.466;18.036;2022-07-29T14:04:33;0.70;;;0.50;;
19207;SDS011;9737;59.466;18.036;2022-07-29T14:07:06;1.40;;;0.50;;
19207;SDS011;9737;59.466;18.036;2022-07-29T14:09:35;0.55;;;0.55;;
19207;SDS011;9737;59.466;18.036;2022-07-29T14:12:07;3.42;;;0.63;;
19207;SDS011;9737;59.466;18.036;2022-07-29T14:14:35;1.10;;;0.45;;
19207;SDS011;9737;59.466;18.036;2022-07-29T14:17:05;0.60;;;0.60;;
19207;SDS011;9737;59.466;18.036;2022-07-29T14:19:33;1.02;;;0.63;;
19207;SDS011;9737;59.466;18.036;2022-07-29T14:22:06;2.60;;;0.70;;
19207;SDS011;9737;59.466;18.036;2022-07-29T14:24:36;0.50;;;0.50;;
19207;SDS011;9737;59.466;18.036;2022-07-29T14:27:05;1.88;;;0.60;;
19207;SDS011;9737;59.466;18.036;2022-07-29T14:29:34;1.33;;;0.60;;
19207;SDS011;9737;59.466;18.036;2022-07-29T14:32:04;0.60;;;0.50;;
19207;SDS011;9737;59.466;18.036;2022-07-29T14:34:33;2.88;;;0.50;;
19207;SDS011;9737;59.466;18.036;2022-07-29T14:37:02;0.60;;;0.50;;
19207;SDS011;9737;59.466;18.036;2022-07-29T14:39:34;1.15;;;0.60;;
19207;SDS011;9737;59.466;18.036;2022-07-29T14:42:08;0.60;;;0.60;;
19207;SDS011;9737;59.466;18.036;2022-07-29T14:44:38;2.55;;;0.60;;
19207;SDS011;9737;59.466;18.036;2022-07-29T14:47:08;0.60;;;0.60;;
19207;SDS011;9737;59.466;18.036;2022-07-29T14:49:36;1.60;;;0.80;;
19207;SDS011;9737;59.466;18.036;2022-07-29T14:52:04;0.40;;;0.40;;
19207;SDS011;9737;59.466;18.036;2022-07-29T14:54:33;0.95;;;0.60;;
19207;SDS011;9737;59.466;18.036;2022-07-29T14:57:01;1.85;;;0.70;;
19207;SDS011;9737;59.466;18.036;2022-07-29T14:59:29;1.30;;;0.73;;
19207;SDS011;9737;59.466;18.036;2022-07-29T15:01:57;1.33;;;0.70;;
19207;SDS011;9737;59.466;18.036;2022-07-29T15:04:26;0.80;;;0.63;;
19207;SDS011;9737;59.466;18.036;2022-07-29T15:06:54;1.17;;;0.65;;
19207;SDS011;9737;59.466;18.036;2022-07-29T15:09:22;1.63;;;0.70;;
19207;SDS011;9737;59.466;18.036;2022-07-29T15:11:52;0.60;;;0.60;;
19207;SDS011;9737;59.466;18.036;2022-07-29T15:14:20;0.50;;;0.50;;
19207;SDS011;9737;59.466;18.036;2022-07-29T15:16:48;0.70;;;0.60;;
19207;SDS011;9737;59.466;18.036;2022-07-29T15:19:18;1.00;;;0.50;;